Time;durP1;ratioP1;P1;durP2;ratioP2;P2;SDS_P1;SDS_P2;PMS_P1;PMS_P2;Temp;Humidity;BMP_temperature;BMP_pressure;BME280_temperature;BME280_humidity;BME280_pressure;Samples;Min_cycle;Max_cycle;Signal;HPM_P1;HPM_P2
2022/11/28 00:02:25;;;;;;;8.40;5.47;;;9.10;99.90;;;;;;5073534;28;20470;-72
2022/11/28 00:04:53;;;;;;;6.60;5.50;;;9.10;99.90;;;;;;5073546;28;20446;-73
2022/11/28 00:07:20;;;;;;;7.43;5.73;;;9.10;99.90;;;;;;5073403;28;20455;-73
2022/11/28 00:09:47;;;;;;;8.97;5.93;;;9.10;99.90;;;;;;5072894;28;20447;-73
2022/11/28 00:12:14;;;;;;;7.93;6.13;;;9.10;99.90;;;;;;5073234;28;20477;-73
2022/11/28 00:14:40;;;;;;;6.70;5.60;;;9.00;99.90;;;;;;5072975;28;20478;-73
2022/11/28 00:17:07;;;;;;;6.63;5.93;;;9.10;99.90;;;;;;5073177;28;20447;-73
2022/11/28 00:19:34;;;;;;;7.53;6.30;;;9.10;99.90;;;;;;5072813;28;20445;-73
2022/11/28 00:22:02;;;;;;;9.77;6.47;;;9.20;99.90;;;;;;5073014;28;20455;-73
2022/11/28 00:24:29;;;;;;;8.50;7.57;;;9.20;99.90;;;;;;5072577;28;20806;-73
2022/11/28 00:26:56;;;;;;;7.67;6.23;;;9.20;99.90;;;;;;5072831;28;20977;-72
2022/11/28 00:29:22;;;;;;;8.70;7.87;;;9.30;99.90;;;;;;5073227;28;20451;-72
2022/11/28 00:31:49;;;;;;;13.23;7.47;;;9.30;99.90;;;;;;5073091;28;20803;-72
2022/11/28 00:34:16;;;;;;;10.17;7.13;;;9.30;99.90;;;;;;5073110;28;20483;-72
2022/11/28 00:36:44;;;;;;;7.70;6.90;;;9.30;99.90;;;;;;5072754;28;20497;-72
2022/11/28 00:39:13;;;;;;;9.50;7.40;;;9.30;99.90;;;;;;5072847;28;20443;-72
2022/11/28 00:41:40;;;;;;;10.60;7.30;;;9.40;99.90;;;;;;5072756;28;20801;-73
2022/11/28 00:44:07;;;;;;;12.17;7.47;;;9.40;99.90;;;;;;5072527;28;20975;-73
2022/11/28 00:46:34;;;;;;;8.60;7.73;;;9.40;99.90;;;;;;5074953;28;20462;-73
2022/11/28 00:49:01;;;;;;;10.93;8.40;;;9.40;99.90;;;;;;5076213;28;20970;-73
2022/11/28 00:51:30;;;;;;;10.07;8.53;;;9.40;99.90;;;;;;5076397;28;20455;-73
2022/11/28 00:53:59;;;;;;;7.70;6.90;;;9.40;99.90;;;;;;5076245;28;20483;-73
2022/11/28 00:56:29;;;;;;;11.53;7.30;;;9.40;99.90;;;;;;5076397;28;20456;-73
2022/11/28 00:58:56;;;;;;;7.40;6.70;;;9.40;99.90;;;;;;5076199;28;20903;-73
2022/11/28 01:01:26;;;;;;;8.53;7.13;;;9.50;99.90;;;;;;5076233;28;20451;-73
2022/11/28 01:03:54;;;;;;;10.50;7.60;;;9.40;99.90;;;;;;5076183;28;20466;-73
2022/11/28 01:06:22;;;;;;;12.23;8.00;;;9.40;99.90;;;;;;5076071;28;20458;-73
2022/11/28 01:08:49;;;;;;;8.67;7.87;;;9.40;99.90;;;;;;5076126;28;20453;-73
2022/11/28 01:11:16;;;;;;;9.70;7.47;;;9.40;99.90;;;;;;5075791;28;20793;-73
2022/11/28 01:13:44;;;;;;;7.77;6.97;;;9.40;99.90;;;;;;5075859;28;20488;-73
2022/11/28 01:16:11;;;;;;;9.80;7.57;;;9.30;99.90;;;;;;5075980;28;20443;-73
2022/11/28 01:18:38;;;;;;;10.40;7.23;;;9.40;99.90;;;;;;5075887;28;20451;-73
2022/11/28 01:21:06;;;;;;;9.03;8.13;;;9.40;99.90;;;;;;5075897;28;20451;-73
2022/11/28 01:23:33;;;;;;;9.37;8.20;;;9.40;99.90;;;;;;5075806;28;20476;-73
2022/11/28 01:26:03;;;;;;;8.80;7.47;;;9.40;99.90;;;;;;5075627;28;20458;-73
2022/11/28 01:28:30;;;;;;;10.93;7.40;;;9.40;99.90;;;;;;5075866;28;20443;-73
2022/11/28 01:31:03;;;;;;;8.20;7.07;;;9.40;99.90;;;;;;5075327;28;20815;-73
2022/11/28 01:33:30;;;;;;;8.90;7.93;;;9.40;99.90;;;;;;5075323;28;20922;-73
2022/11/28 01:35:58;;;;;;;9.27;7.97;;;9.40;99.90;;;;;;5075624;28;20463;-73
2022/11/28 01:38:26;;;;;;;8.10;7.00;;;9.40;99.90;;;;;;5075679;28;20455;-73
2022/11/28 01:40:53;;;;;;;8.10;7.30;;;9.40;99.90;;;;;;5075609;28;20443;-73
2022/11/28 01:43:21;;;;;;;10.07;8.13;;;9.40;99.90;;;;;;5075048;28;20467;-73
2022/11/28 01:45:48;;;;;;;10.40;8.07;;;9.40;99.90;;;;;;5075568;28;20452;-73
2022/11/28 01:48:20;;;;;;;9.40;7.60;;;9.40;99.90;;;;;;5075311;28;20448;-73
2022/11/28 01:50:49;;;;;;;8.60;7.77;;;9.40;99.90;;;;;;5075183;28;20431;-73
2022/11/28 01:53:17;;;;;;;10.77;8.40;;;9.40;99.90;;;;;;5075325;28;20474;-73
2022/11/28 01:55:54;;;;;;;9.33;7.77;;;9.40;99.90;;;;;;5075136;28;20482;-73
2022/11/28 01:58:21;;;;;;;9.27;6.80;;;9.40;99.90;;;;;;5075742;28;20428;-73
2022/11/28 02:00:49;;;;;;;8.80;6.77;;;9.30;99.90;;;;;;5076387;28;20440;-73
2022/11/28 02:03:21;;;;;;;10.97;6.90;;;9.30;99.90;;;;;;5074628;28;20473;-73
2022/11/28 02:05:50;;;;;;;7.87;7.07;;;9.30;99.90;;;;;;5075986;28;20804;-73
2022/11/28 02:08:17;;;;;;;10.63;6.67;;;9.40;99.90;;;;;;5076747;28;20469;-73
2022/11/28 02:11:02;;;;;;;10.23;6.50;;;9.30;99.90;;;;;;5075247;28;20449;-72
2022/11/28 02:13:40;;;;;;;6.97;6.00;;;9.30;99.90;;;;;;5075214;28;20506;-72
2022/11/28 02:16:25;;;;;;;8.30;6.00;;;9.30;99.90;;;;;;5075676;28;20455;-72
2022/11/28 02:19:05;;;;;;;8.10;6.13;;;9.30;99.90;;;;;;5074941;28;20434;-71
2022/11/28 02:21:53;;;;;;;9.27;5.63;;;9.20;99.90;;;;;;5075087;28;20494;-71
2022/11/28 02:24:56;;;;;;;6.93;6.30;;;9.20;99.90;;;;;;5075468;28;20427;-72
2022/11/28 02:27:41;;;;;;;11.60;6.50;;;9.30;99.90;;;;;;5059455;28;20454;-71
2022/11/28 02:30:18;;;;;;;10.60;6.50;;;9.20;99.90;;;;;;5074614;28;20438;-71
2022/11/28 02:32:57;;;;;;;6.90;5.97;;;9.20;99.90;;;;;;5074534;28;20466;-71
2022/11/28 02:35:33;;;;;;;7.03;6.33;;;9.20;99.90;;;;;;5074379;28;20480;-70
2022/11/28 02:38:06;;;;;;;8.90;6.00;;;9.20;99.90;;;;;;5074228;28;20943;-70
2022/11/28 02:40:38;;;;;;;6.37;5.70;;;9.20;99.90;;;;;;5074535;28;20438;-71
2022/11/28 02:43:13;;;;;;;6.67;5.47;;;9.10;99.90;;;;;;5074313;28;20991;-70
2022/11/28 02:45:48;;;;;;;7.50;6.73;;;9.20;99.90;;;;;;5074549;28;20428;-70
2022/11/28 02:48:25;;;;;;;7.20;6.07;;;9.20;99.90;;;;;;5074126;28;20431;-70
2022/11/28 02:50:58;;;;;;;8.43;5.37;;;9.20;99.90;;;;;;5074591;28;20447;-70
2022/11/28 02:53:28;;;;;;;6.53;5.27;;;9.10;99.90;;;;;;5075182;28;20475;-71
2022/11/28 02:55:59;;;;;;;6.87;5.73;;;9.20;99.90;;;;;;5075042;28;20428;-72
2022/11/28 02:58:26;;;;;;;8.37;5.70;;;9.10;99.90;;;;;;5075323;28;20435;-72
2022/11/28 03:00:53;;;;;;;9.93;5.97;;;9.10;99.90;;;;;;5074289;28;20446;-71
2022/11/28 03:03:52;;;;;;;7.77;5.70;;;9.10;99.90;;;;;;5074010;28;20994;-71
2022/11/28 03:06:32;;;;;;;10.83;7.90;;;9.10;99.90;;;;;;5074300;28;20435;-71
2022/11/28 03:09:14;;;;;;;6.60;5.20;;;9.10;99.90;;;;;;5073859;28;20432;-71
2022/11/28 03:11:49;;;;;;;5.87;5.20;;;9.10;99.90;;;;;;5074993;28;20424;-71
2022/11/28 03:14:27;;;;;;;6.10;5.50;;;9.10;99.90;;;;;;5074478;28;20467;-71
2022/11/28 03:17:02;;;;;;;8.70;5.87;;;9.10;99.90;;;;;;5074218;28;20439;-71
2022/11/28 03:19:34;;;;;;;8.63;6.70;;;9.10;99.90;;;;;;5074427;28;20427;-71
2022/11/28 03:22:10;;;;;;;6.53;5.03;;;9.10;99.90;;;;;;5074176;28;20431;-71
2022/11/28 03:24:41;;;;;;;6.00;5.40;;;9.10;99.90;;;;;;5074178;28;20443;-71
2022/11/28 03:27:13;;;;;;;7.10;5.30;;;9.10;99.90;;;;;;5073768;28;20427;-71
2022/11/28 03:29:44;;;;;;;11.77;5.37;;;9.10;99.90;;;;;;5073846;28;20435;-70
2022/11/28 03:32:17;;;;;;;5.60;4.67;;;9.10;99.90;;;;;;5073623;28;20470;-70
2022/11/28 03:34:49;;;;;;;6.10;5.17;;;9.10;99.90;;;;;;5073714;28;20464;-70
2022/11/28 03:37:20;;;;;;;6.07;4.50;;;9.10;99.90;;;;;;5073360;28;20456;-70
2022/11/28 03:39:53;;;;;;;7.87;5.27;;;9.20;99.90;;;;;;5073833;28;20428;-70
2022/11/28 03:42:23;;;;;;;6.93;4.90;;;9.20;99.90;;;;;;5073682;28;20466;-71
2022/11/28 03:44:54;;;;;;;6.43;5.77;;;9.20;99.90;;;;;;5074872;28;20442;-71
2022/11/28 03:47:26;;;;;;;6.60;6.00;;;9.20;99.90;;;;;;5073977;28;20440;-71
2022/11/28 03:49:56;;;;;;;7.17;6.00;;;9.20;99.90;;;;;;5073972;28;20446;-71
2022/11/28 03:52:26;;;;;;;9.07;6.30;;;9.20;99.90;;;;;;5074200;28;20808;-71
2022/11/28 03:54:58;;;;;;;8.07;6.67;;;9.30;99.90;;;;;;5074660;28;20799;-71
2022/11/28 03:57:34;;;;;;;11.67;8.00;;;9.30;99.90;;;;;;5074596;28;20433;-71
2022/11/28 04:00:04;;;;;;;14.83;8.53;;;9.40;99.90;;;;;;5074366;28;20786;-71
2022/11/28 04:02:36;;;;;;;9.70;7.97;;;9.40;99.90;;;;;;5074531;28;20473;-71
2022/11/28 04:05:12;;;;;;;9.67;7.43;;;9.40;99.90;;;;;;5074568;28;20432;-72
2022/11/28 04:07:43;;;;;;;10.97;7.97;;;9.40;99.90;;;;;;5074656;28;20435;-72
2022/11/28 04:10:17;;;;;;;11.03;8.40;;;9.50;99.90;;;;;;5074644;28;20451;-72
2022/11/28 04:12:52;;;;;;;10.77;8.67;;;9.50;99.90;;;;;;5073873;28;20479;-71
2022/11/28 04:15:26;;;;;;;9.63;8.63;;;9.50;99.90;;;;;;5073599;28;20467;-71
2022/11/28 04:17:58;;;;;;;9.10;8.20;;;9.50;99.90;;;;;;5073696;28;20428;-71
2022/11/28 04:20:33;;;;;;;11.67;7.67;;;9.50;99.90;;;;;;5076208;28;20434;-71
2022/11/28 04:23:03;;;;;;;11.80;8.27;;;9.50;99.90;;;;;;5078028;28;21011;-71
2022/11/28 04:25:34;;;;;;;10.70;8.30;;;9.50;99.90;;;;;;5077938;28;20450;-72
2022/11/28 04:28:06;;;;;;;9.73;7.77;;;9.50;99.90;;;;;;5077818;28;20433;-72
2022/11/28 04:30:34;;;;;;;10.10;8.37;;;9.50;99.90;;;;;;5077460;28;20820;-72
2022/11/28 04:33:06;;;;;;;10.93;8.20;;;9.50;99.90;;;;;;5077595;28;20482;-72
2022/11/28 04:35:37;;;;;;;10.17;8.07;;;9.50;99.90;;;;;;5077649;28;20494;-71
2022/11/28 04:38:06;;;;;;;8.53;7.33;;;9.50;99.90;;;;;;5077297;28;20982;-71
2022/11/28 04:40:38;;;;;;;8.87;7.60;;;9.50;99.90;;;;;;5077497;28;20533;-71
2022/11/28 04:43:09;;;;;;;9.23;7.10;;;9.50;99.90;;;;;;5077648;28;20471;-71
2022/11/28 04:45:41;;;;;;;15.17;8.20;;;9.50;99.90;;;;;;5077509;28;20428;-71
2022/11/28 04:48:08;;;;;;;11.40;7.57;;;9.50;99.90;;;;;;5077342;28;20439;-72
2022/11/28 04:50:42;;;;;;;10.17;7.43;;;9.50;99.90;;;;;;5077436;28;20447;-72
2022/11/28 04:53:15;;;;;;;9.97;8.17;;;9.50;99.90;;;;;;5077610;28;20474;-72
2022/11/28 04:55:47;;;;;;;9.40;7.57;;;9.50;99.90;;;;;;5077158;28;20471;-72
2022/11/28 04:58:19;;;;;;;9.50;7.70;;;9.50;99.90;;;;;;5076835;28;20473;-71
2022/11/28 05:00:48;;;;;;;8.40;7.50;;;9.50;99.90;;;;;;5077362;28;20436;-71
2022/11/28 05:03:15;;;;;;;8.90;8.00;;;9.50;99.90;;;;;;5077197;28;20471;-71
2022/11/28 05:05:46;;;;;;;10.37;7.60;;;9.40;99.90;;;;;;5077499;28;20452;-71
2022/11/28 05:08:13;;;;;;;11.27;8.47;;;9.40;99.90;;;;;;5077488;28;20443;-71
2022/11/28 05:10:39;;;;;;;10.20;9.20;;;9.40;99.90;;;;;;5077074;28;20452;-71
2022/11/28 05:13:06;;;;;;;10.50;7.50;;;9.40;99.90;;;;;;5077188;28;20471;-71
2022/11/28 05:15:33;;;;;;;9.03;8.17;;;9.50;99.90;;;;;;5076719;28;20491;-71
2022/11/28 05:18:00;;;;;;;8.87;7.90;;;9.50;99.90;;;;;;5076605;28;20455;-71
2022/11/28 05:20:27;;;;;;;11.50;8.60;;;9.50;99.90;;;;;;5076593;28;20447;-71
2022/11/28 05:22:55;;;;;;;10.67;8.50;;;9.50;99.90;;;;;;5076449;28;20472;-71
2022/11/28 05:25:22;;;;;;;10.57;9.00;;;9.50;99.90;;;;;;5076175;28;20806;-71
2022/11/28 05:27:49;;;;;;;9.73;8.67;;;9.50;99.90;;;;;;5076638;28;20446;-71
2022/11/28 05:30:16;;;;;;;14.50;9.20;;;9.50;99.90;;;;;;5076984;28;20448;-71
2022/11/28 05:32:43;;;;;;;12.23;8.20;;;9.50;99.90;;;;;;5075532;28;20479;-70
2022/11/28 05:35:09;;;;;;;10.03;7.70;;;9.50;99.90;;;;;;5077270;28;20471;-71
2022/11/28 05:37:36;;;;;;;10.50;9.10;;;9.50;99.90;;;;;;5077364;28;20465;-71
2022/11/28 05:40:06;;;;;;;9.23;7.40;;;9.40;99.90;;;;;;5078627;28;20447;-71
2022/11/28 05:42:33;;;;;;;11.70;8.50;;;9.40;99.90;;;;;;5078055;28;21021;-71
2022/11/28 05:45:00;;;;;;;9.80;7.70;;;9.50;99.90;;;;;;5077949;28;20798;-71
2022/11/28 05:47:30;;;;;;;9.80;8.80;;;9.40;99.90;;;;;;5076845;28;20448;-71
2022/11/28 05:49:57;;;;;;;12.60;8.63;;;9.40;99.90;;;;;;5076412;28;20439;-72
2022/11/28 05:52:24;;;;;;;11.87;9.23;;;9.40;99.90;;;;;;5076081;28;20974;-72
2022/11/28 05:54:51;;;;;;;12.13;8.50;;;9.40;99.90;;;;;;5076420;28;20475;-72
2022/11/28 05:57:19;;;;;;;15.60;10.43;;;9.40;99.90;;;;;;5077163;28;20906;-72
2022/11/28 05:59:45;;;;;;;12.10;10.37;;;9.40;99.90;;;;;;5076330;28;20997;-72
2022/11/28 06:02:12;;;;;;;10.83;9.37;;;9.40;99.90;;;;;;5076635;28;20474;-72
2022/11/28 06:04:40;;;;;;;10.90;9.53;;;9.40;99.90;;;;;;5076293;28;20438;-72
2022/11/28 06:07:07;;;;;;;12.33;9.40;;;9.40;99.90;;;;;;5076740;28;20499;-71
2022/11/28 06:09:34;;;;;;;12.00;9.90;;;9.40;99.90;;;;;;5076664;28;20446;-71
2022/11/28 06:12:01;;;;;;;13.77;10.03;;;9.40;99.90;;;;;;5076862;28;20452;-71
2022/11/28 06:14:29;;;;;;;9.93;8.20;;;9.40;99.90;;;;;;5076610;28;20955;-71
2022/11/28 06:16:55;;;;;;;10.17;9.17;;;9.40;99.90;;;;;;5076301;28;20452;-71
2022/11/28 06:19:22;;;;;;;11.47;8.33;;;9.40;99.90;;;;;;5076469;28;20450;-72
2022/11/28 06:21:50;;;;;;;11.10;8.10;;;9.40;99.90;;;;;;5075813;28;20550;-72
2022/11/28 06:24:18;;;;;;;10.10;8.83;;;9.40;99.90;;;;;;5076237;28;20450;-72
2022/11/28 06:26:44;;;;;;;10.70;8.70;;;9.40;99.90;;;;;;5075790;28;20439;-72
2022/11/28 06:29:11;;;;;;;10.33;9.30;;;9.30;99.90;;;;;;5074782;28;20984;-72
2022/11/28 06:31:39;;;;;;;10.20;9.20;;;9.30;99.90;;;;;;5076444;28;20435;-72
2022/11/28 06:34:06;;;;;;;11.27;9.33;;;9.30;99.90;;;;;;5075828;28;20985;-72
2022/11/28 06:36:33;;;;;;;11.30;9.77;;;9.30;99.90;;;;;;5076440;28;20487;-72
2022/11/28 06:39:00;;;;;;;11.67;9.80;;;9.30;99.90;;;;;;5078372;28;20436;-72
2022/11/28 06:41:27;;;;;;;12.43;9.60;;;9.30;99.90;;;;;;5084034;28;20470;-72
2022/11/28 06:43:55;;;;;;;11.23;10.07;;;9.30;99.90;;;;;;5087061;28;20482;-72
2022/11/28 06:46:22;;;;;;;11.90;9.77;;;9.30;99.90;;;;;;5090107;28;20466;-72
2022/11/28 06:48:51;;;;;;;10.37;8.80;;;9.30;99.90;;;;;;5093530;28;20452;-72
2022/11/28 06:51:19;;;;;;;12.37;9.17;;;9.30;99.90;;;;;;5092417;28;20461;-72
2022/11/28 06:53:45;;;;;;;10.47;8.10;;;9.20;99.90;;;;;;5087119;28;20467;-72
2022/11/28 06:56:14;;;;;;;11.67;8.73;;;9.20;99.90;;;;;;5081803;28;20486;-72
2022/11/28 06:58:42;;;;;;;15.13;9.07;;;9.20;99.90;;;;;;5078298;28;20533;-72
2022/11/28 07:01:11;;;;;;;15.00;9.70;;;9.30;99.90;;;;;;5077087;28;20452;-72
2022/11/28 07:03:39;;;;;;;11.03;8.53;;;9.20;99.90;;;;;;5075376;28;20470;-72
2022/11/28 07:06:08;;;;;;;9.00;8.10;;;9.20;99.90;;;;;;5075357;28;20443;-72
2022/11/28 07:08:36;;;;;;;9.60;8.60;;;9.20;99.90;;;;;;5075333;28;20443;-72
2022/11/28 07:11:10;;;;;;;10.93;8.53;;;9.30;99.90;;;;;;5075542;28;20448;-72
2022/11/28 07:13:37;;;;;;;12.80;8.70;;;9.30;99.90;;;;;;5074743;28;20481;-72
2022/11/28 07:16:05;;;;;;;8.97;7.87;;;9.30;99.90;;;;;;5075510;28;20470;-72
2022/11/28 07:18:32;;;;;;;10.77;8.30;;;9.30;99.90;;;;;;5075306;28;20446;-72
2022/11/28 07:20:58;;;;;;;12.93;8.73;;;9.30;99.90;;;;;;5075299;28;20455;-72
2022/11/28 07:23:26;;;;;;;8.60;6.83;;;9.30;99.90;;;;;;5075336;28;20840;-72
2022/11/28 07:25:58;;;;;;;13.17;8.83;;;9.20;99.90;;;;;;5075322;28;20470;-72
2022/11/28 07:28:25;;;;;;;9.00;7.53;;;9.30;99.90;;;;;;5075294;28;20434;-72
2022/11/28 07:31:00;;;;;;;8.77;7.90;;;9.20;99.90;;;;;;5075317;28;20447;-72
2022/11/28 07:33:27;;;;;;;11.40;8.00;;;9.20;99.90;;;;;;5074893;28;20475;-72
2022/11/28 07:35:54;;;;;;;14.23;9.23;;;9.20;99.90;;;;;;5075154;28;20489;-72
2022/11/28 07:38:20;;;;;;;11.70;8.83;;;9.20;99.90;;;;;;5075173;28;20465;-72
2022/11/28 07:40:49;;;;;;;12.23;10.03;;;9.10;99.90;;;;;;5075298;28;20436;-72
2022/11/28 07:43:16;;;;;;;10.13;7.97;;;9.20;99.90;;;;;;5075273;28;20498;-72
2022/11/28 07:45:42;;;;;;;9.40;8.40;;;9.10;99.90;;;;;;5074517;28;20962;-72
2022/11/28 07:48:09;;;;;;;10.47;8.70;;;9.20;99.90;;;;;;5073538;28;20837;-72
2022/11/28 07:50:38;;;;;;;12.30;8.00;;;9.20;99.90;;;;;;5074430;28;20482;-72
2022/11/28 07:53:05;;;;;;;9.53;8.53;;;9.20;99.90;;;;;;5074537;28;20480;-72
2022/11/28 07:55:34;;;;;;;8.77;7.60;;;9.20;99.90;;;;;;5077254;28;20466;-72
2022/11/28 07:58:02;;;;;;;9.67;7.67;;;9.20;99.90;;;;;;5079063;28;20468;-72
2022/11/28 08:00:29;;;;;;;12.37;8.40;;;9.20;99.90;;;;;;5079567;28;20447;-72
2022/11/28 08:02:55;;;;;;;9.70;7.80;;;9.20;99.90;;;;;;5079439;28;20470;-72
2022/11/28 08:05:22;;;;;;;13.10;8.23;;;9.20;99.90;;;;;;5079184;28;20445;-72
2022/11/28 08:07:49;;;;;;;9.70;7.83;;;9.20;99.90;;;;;;5079185;28;20464;-72
2022/11/28 08:10:17;;;;;;;10.40;8.43;;;9.20;99.90;;;;;;5078916;28;20516;-72
2022/11/28 08:12:44;;;;;;;8.47;7.57;;;9.30;99.90;;;;;;5079192;28;20471;-72
2022/11/28 08:15:12;;;;;;;10.57;9.47;;;9.20;99.90;;;;;;5078746;28;20446;-72
2022/11/28 08:17:39;;;;;;;14.23;9.40;;;9.20;99.90;;;;;;5078767;28;20922;-72
2022/11/28 08:20:07;;;;;;;11.40;8.70;;;9.20;99.90;;;;;;5079195;28;21019;-72
2022/11/28 08:22:34;;;;;;;10.50;8.30;;;9.20;99.90;;;;;;5078954;28;20474;-72
2022/11/28 08:25:01;;;;;;;11.63;9.17;;;9.20;99.90;;;;;;5078235;28;20453;-71
2022/11/28 08:27:27;;;;;;;8.63;7.57;;;9.20;99.90;;;;;;5078560;28;20450;-72
2022/11/28 08:29:54;;;;;;;9.83;8.50;;;9.20;99.90;;;;;;5078516;28;20447;-72
2022/11/28 08:32:22;;;;;;;13.00;8.43;;;9.20;99.90;;;;;;5078397;28;20470;-72
2022/11/28 08:34:49;;;;;;;13.23;8.00;;;9.30;99.90;;;;;;5078208;28;20447;-72
2022/11/28 08:37:16;;;;;;;10.40;7.87;;;9.30;99.90;;;;;;5077924;28;20630;-71
2022/11/28 08:39:42;;;;;;;13.27;8.47;;;9.30;99.90;;;;;;5078003;28;20942;-71
2022/11/28 08:42:09;;;;;;;14.53;10.70;;;9.30;99.90;;;;;;5077995;28;20469;-72
2022/11/28 08:44:36;;;;;;;9.50;8.60;;;9.30;99.90;;;;;;5077915;28;20989;-71
2022/11/28 08:47:03;;;;;;;11.47;8.97;;;9.30;99.90;;;;;;5077988;28;20450;-71
2022/11/28 08:49:31;;;;;;;16.50;10.60;;;9.30;99.90;;;;;;5077952;28;20451;-71
2022/11/28 08:51:58;;;;;;;10.27;9.17;;;9.40;99.90;;;;;;5078454;28;20515;-72
2022/11/28 08:54:24;;;;;;;11.60;9.23;;;9.40;99.90;;;;;;5078268;28;20454;-72
2022/11/28 08:56:51;;;;;;;11.50;8.47;;;9.40;99.90;;;;;;5077870;28;20490;-72
2022/11/28 08:59:18;;;;;;;10.27;8.60;;;9.40;99.90;;;;;;5078916;28;20448;-72
2022/11/28 09:01:44;;;;;;;9.53;8.60;;;9.40;99.90;;;;;;5078639;28;20830;-72
2022/11/28 09:04:11;;;;;;;9.47;8.53;;;9.40;99.90;;;;;;5078049;28;20479;-72
2022/11/28 09:06:40;;;;;;;12.13;8.83;;;9.40;99.90;;;;;;5076899;28;20439;-71
2022/11/28 09:09:07;;;;;;;13.83;9.20;;;9.40;99.90;;;;;;5077284;28;20432;-71
2022/11/28 09:11:35;;;;;;;10.07;7.93;;;9.40;99.90;;;;;;5077197;28;20454;-71
2022/11/28 09:14:01;;;;;;;9.53;8.40;;;9.50;99.90;;;;;;5077023;28;20472;-71
2022/11/28 09:16:29;;;;;;;10.43;9.23;;;9.40;99.90;;;;;;5077543;28;20475;-70
2022/11/28 09:18:58;;;;;;;10.37;9.10;;;9.40;99.90;;;;;;5076571;28;20809;-70
2022/11/28 09:21:25;;;;;;;10.07;8.20;;;9.40;99.90;;;;;;5076714;28;20538;-70
2022/11/28 09:23:55;;;;;;;12.40;10.23;;;9.50;99.90;;;;;;5076601;28;20473;-70
2022/11/28 09:26:24;;;;;;;12.13;10.10;;;9.50;99.90;;;;;;5076385;28;20427;-71
2022/11/28 09:28:51;;;;;;;13.03;10.50;;;9.40;99.90;;;;;;5077197;28;20462;-71
2022/11/28 09:31:18;;;;;;;12.90;9.97;;;9.40;99.90;;;;;;5077112;28;20456;-71
2022/11/28 09:33:46;;;;;;;15.07;10.47;;;9.40;99.90;;;;;;5076591;28;20462;-71
2022/11/28 09:36:14;;;;;;;11.77;10.00;;;9.40;99.90;;;;;;5076635;28;20514;-71
2022/11/28 09:38:41;;;;;;;11.80;9.20;;;9.40;99.90;;;;;;5077104;28;20438;-71
2022/11/28 09:41:33;;;;;;;11.40;9.63;;;9.40;99.90;;;;;;5076907;28;20454;-71
2022/11/28 09:44:06;;;;;;;10.80;9.70;;;9.40;99.90;;;;;;5076488;28;20987;-70
2022/11/28 09:46:36;;;;;;;11.47;9.40;;;9.40;99.90;;;;;;5077405;28;20427;-70
2022/11/28 09:49:17;;;;;;;11.17;10.00;;;9.50;99.90;;;;;;5076959;28;20431;-71
2022/11/28 09:51:51;;;;;;;10.47;8.63;;;9.50;99.90;;;;;;5077844;28;20440;-71
2022/11/28 09:54:23;;;;;;;13.40;9.83;;;9.50;99.90;;;;;;5076797;28;20436;-71
2022/11/28 09:56:51;;;;;;;15.73;8.40;;;9.50;99.90;;;;;;5076390;28;20468;-71
2022/11/28 09:59:25;;;;;;;14.00;9.70;;;9.60;99.90;;;;;;5077132;28;20451;-71
2022/11/28 10:02:01;;;;;;;9.83;8.80;;;9.60;99.90;;;;;;5076542;28;20434;-71
2022/11/28 10:04:35;;;;;;;12.93;10.07;;;9.60;99.90;;;;;;5076771;28;20445;-71
2022/11/28 10:07:10;;;;;;;10.60;8.70;;;9.70;99.90;;;;;;5075938;28;20435;-71
2022/11/28 10:09:46;;;;;;;14.73;11.90;;;9.70;99.90;;;;;;5077307;28;20443;-71
2022/11/28 10:12:27;;;;;;;11.10;10.00;;;9.80;99.90;;;;;;5076000;28;20479;-71
2022/11/28 10:15:15;;;;;;;15.83;9.60;;;9.80;99.90;;;;;;5075863;28;20467;-70
2022/11/28 10:17:51;;;;;;;11.47;10.27;;;9.90;99.90;;;;;;5076230;28;20472;-70
2022/11/28 10:20:23;;;;;;;12.57;10.07;;;9.90;99.90;;;;;;5076808;28;20428;-71
2022/11/28 10:22:55;;;;;;;10.83;8.00;;;10.00;99.90;;;;;;5077149;28;20487;-71
2022/11/28 10:25:26;;;;;;;10.97;8.50;;;10.10;99.90;;;;;;5076837;28;20454;-71
2022/11/28 10:27:55;;;;;;;10.30;9.10;;;10.10;99.90;;;;;;5077065;28;20428;-71
2022/11/28 10:30:24;;;;;;;9.10;7.90;;;10.20;99.90;;;;;;5076991;28;20461;-71
2022/11/28 10:33:01;;;;;;;11.03;8.37;;;10.30;99.90;;;;;;5077354;28;20987;-72
2022/11/28 10:35:33;;;;;;;9.03;8.13;;;10.30;99.90;;;;;;5077664;28;20450;-72
2022/11/28 10:38:00;;;;;;;9.83;8.80;;;10.40;99.90;;;;;;5077812;28;20481;-71
2022/11/28 10:40:39;;;;;;;8.97;7.57;;;10.50;99.90;;;;;;5078369;28;20498;-71
2022/11/28 10:43:19;;;;;;;9.07;8.13;;;10.50;99.90;;;;;;5078568;28;20470;-71
2022/11/28 10:45:53;;;;;;;10.50;8.53;;;10.50;99.90;;;;;;5078079;28;20912;-71
2022/11/28 10:48:31;;;;;;;10.77;9.63;;;10.60;99.90;;;;;;5078185;28;20428;-72
2022/11/28 10:51:07;;;;;;;9.70;8.10;;;10.60;99.90;;;;;;5079045;28;20454;-72
2022/11/28 10:53:43;;;;;;;9.97;7.70;;;10.60;99.90;;;;;;5079572;28;20476;-72
2022/11/28 10:56:20;;;;;;;15.90;8.00;;;10.60;99.90;;;;;;5080372;28;20460;-71
2022/11/28 10:58:55;;;;;;;11.10;8.77;;;10.60;99.90;;;;;;5080919;28;20436;-71
2022/11/28 11:01:22;;;;;;;11.00;8.03;;;10.60;99.90;;;;;;5079624;28;20431;-71
2022/11/28 11:03:49;;;;;;;10.63;8.83;;;10.50;99.90;;;;;;5081315;28;20476;-71
2022/11/28 11:06:16;;;;;;;9.17;8.03;;;10.50;99.90;;;;;;5080535;28;20939;-71
2022/11/28 11:08:45;;;;;;;16.67;8.80;;;10.50;99.90;;;;;;5081973;28;20448;-71
2022/11/28 11:11:24;;;;;;;9.47;8.27;;;10.50;99.90;;;;;;5080856;28;20448;-71
2022/11/28 11:14:01;;;;;;;9.57;8.50;;;10.50;99.90;;;;;;5081545;28;20502;-71
2022/11/28 11:16:50;;;;;;;10.53;8.87;;;10.50;99.90;;;;;;5079687;28;20493;-71
2022/11/28 11:19:25;;;;;;;11.10;8.53;;;10.50;99.90;;;;;;5080591;28;20430;-71
2022/11/28 11:22:04;;;;;;;10.70;6.83;;;10.50;99.90;;;;;;5084417;28;20429;-71
2022/11/28 11:24:31;;;;;;;13.17;7.83;;;10.50;99.90;;;;;;5089197;28;20418;-71
2022/11/28 11:27:07;;;;;;;11.17;7.10;;;10.50;99.90;;;;;;5095330;28;20418;-71
2022/11/28 11:29:37;;;;;;;8.97;8.00;;;10.50;99.90;;;;;;5097384;28;20500;-71
2022/11/28 11:32:05;;;;;;;10.80;8.23;;;10.50;99.90;;;;;;5097476;28;20405;-71
2022/11/28 11:34:42;;;;;;;9.93;7.50;;;10.60;99.90;;;;;;5097623;28;20491;-71
2022/11/28 11:37:31;;;;;;;10.90;7.83;;;10.60;99.90;;;;;;5096786;28;20490;-71
2022/11/28 11:40:00;;;;;;;9.13;8.07;;;10.60;99.90;;;;;;5093428;28;20424;-69
2022/11/28 11:42:29;;;;;;;9.60;8.03;;;10.60;99.90;;;;;;5096098;28;20443;-69
2022/11/28 11:45:25;;;;;;;10.77;7.73;;;10.60;99.90;;;;;;5096783;28;20432;-70
2022/11/28 11:47:51;;;;;;;9.67;8.13;;;10.60;99.90;;;;;;5093827;28;20431;-70
2022/11/28 11:50:20;;;;;;;11.43;8.40;;;10.50;99.90;;;;;;5089378;28;20452;-71
2022/11/28 11:53:04;;;;;;;8.70;7.80;;;10.50;99.90;;;;;;5085475;28;20459;-71
2022/11/28 11:55:34;;;;;;;8.43;7.63;;;10.40;99.90;;;;;;5084206;28;20444;-71
2022/11/28 11:58:04;;;;;;;9.40;8.00;;;10.40;99.90;;;;;;5084199;28;21008;-70
2022/11/28 12:00:37;;;;;;;9.27;8.37;;;10.30;99.90;;;;;;5089633;28;20427;-71
2022/11/28 12:03:12;;;;;;;8.77;7.97;;;10.30;99.90;;;;;;5088883;28;20473;-72
2022/11/28 12:05:48;;;;;;;8.13;7.33;;;10.30;99.90;;;;;;5086513;28;20432;-71
2022/11/28 12:08:20;;;;;;;10.77;8.17;;;10.30;99.90;;;;;;5088194;28;20485;-72
2022/11/28 12:10:51;;;;;;;8.87;7.73;;;10.30;99.90;;;;;;5089019;28;20430;-72
2022/11/28 12:13:21;;;;;;;11.40;7.13;;;10.30;99.90;;;;;;5087234;28;20473;-71
2022/11/28 12:15:59;;;;;;;6.97;6.30;;;10.30;99.90;;;;;;5085401;28;20439;-72
2022/11/28 12:18:35;;;;;;;9.17;8.27;;;10.40;99.90;;;;;;5082726;28;20466;-71
2022/11/28 12:21:13;;;;;;;7.50;6.77;;;10.40;99.90;;;;;;5077467;28;20431;-71
2022/11/28 12:24:00;;;;;;;6.90;5.90;;;10.40;99.90;;;;;;5074499;28;20897;-72
2022/11/28 12:26:36;;;;;;;7.67;6.97;;;10.40;99.90;;;;;;5074054;28;20437;-71
2022/11/28 12:29:22;;;;;;;6.67;6.03;;;10.40;99.90;;;;;;5073958;28;20432;-71
2022/11/28 12:32:02;;;;;;;7.37;5.90;;;10.40;99.90;;;;;;5073568;28;20441;-71
2022/11/28 12:34:39;;;;;;;8.80;7.43;;;10.40;99.90;;;;;;5073511;28;20432;-71
2022/11/28 12:37:13;;;;;;;7.67;6.97;;;10.40;99.90;;;;;;5074135;28;20484;-71
2022/11/28 12:39:54;;;;;;;7.90;7.10;;;10.50;99.90;;;;;;5074387;28;20435;-71
2022/11/28 12:42:36;;;;;;;8.50;6.43;;;10.50;99.90;;;;;;5077382;28;20478;-71
2022/11/28 12:45:19;;;;;;;7.63;6.83;;;10.50;99.90;;;;;;5077836;28;20427;-71
2022/11/28 12:47:54;;;;;;;7.47;6.77;;;10.50;99.90;;;;;;5078287;28;20430;-71
2022/11/28 12:50:31;;;;;;;7.70;7.00;;;10.50;99.90;;;;;;5077707;28;20910;-72
2022/11/28 12:53:10;;;;;;;8.20;7.33;;;10.60;99.90;;;;;;5078073;28;20505;-72
2022/11/28 12:55:45;;;;;;;7.27;6.57;;;10.60;99.90;;;;;;5077334;28;20439;-72
2022/11/28 12:58:18;;;;;;;8.07;7.27;;;10.60;99.90;;;;;;5077107;28;20477;-72
2022/11/28 13:00:52;;;;;;;8.93;8.03;;;10.70;99.90;;;;;;5076669;28;20903;-71
2022/11/28 13:03:36;;;;;;;10.73;9.60;;;10.70;99.90;;;;;;5076744;28;20543;-71
2022/11/28 13:06:15;;;;;;;9.27;8.10;;;10.70;99.90;;;;;;5076483;28;20449;-71
2022/11/28 13:09:03;;;;;;;9.80;8.67;;;10.70;99.90;;;;;;5076325;28;20448;-71